Terminal Aerodrome Forecast
Issued by NWS Tuscon, AZ

Home | Current Version | Previous Version | Text Only | Print | Product List | Glossary On
Versions: 1 2 3 4 5 6 7 8 9 10 11 12 13 14 15 16 17 18 19 20 21 22
482
FTUS45 KTWC 301850 AAA
TAFTUS
TAF AMD
KTUS 301850Z 3019/0118 VRB06KT P6SM VCTS SCT070CB BKN150
      TEMPO 3019/3021 VRB06G30KT -TSRA BKN070CB BKN150
     FM302300 VRB06KT P6SM VCSH SCT080 SCT120
     FM010000 32008KT P6SM SCT090 SCT150
     FM010700 14006KT P6SM SKC
     FM011700 VRB05KT P6SM SKC=

USA.gov is the U.S. government's official web portal to all federal, state and local government web resources and services.